sensor_id;sensor_type;location;lat;lon;timestamp;P1;durP1;ratioP1;P2;durP2;ratioP2
71867;SDS011;59738;48.324;14.230;2023-03-01T00:01:00;11.75;;;5.95;;
71867;SDS011;59738;48.324;14.230;2023-03-01T00:03:30;11.40;;;7.07;;
71867;SDS011;59738;48.324;14.230;2023-03-01T00:05:58;9.93;;;4.97;;
71867;SDS011;59738;48.324;14.230;2023-03-01T00:08:26;12.07;;;6.38;;
71867;SDS011;59738;48.324;14.230;2023-03-01T00:11:03;8.40;;;4.70;;
71867;SDS011;59738;48.324;14.230;2023-03-01T00:13:32;13.30;;;6.72;;
71867;SDS011;59738;48.324;14.230;2023-03-01T00:16:01;10.52;;;6.10;;
71867;SDS011;59738;48.324;14.230;2023-03-01T00:18:30;9.55;;;4.40;;
71867;SDS011;59738;48.324;14.230;2023-03-01T00:20:58;10.48;;;6.18;;
71867;SDS011;59738;48.324;14.230;2023-03-01T00:23:26;9.27;;;4.97;;
71867;SDS011;59738;48.324;14.230;2023-03-01T00:25:54;9.77;;;4.82;;
71867;SDS011;59738;48.324;14.230;2023-03-01T00:28:21;8.90;;;5.38;;
71867;SDS011;59738;48.324;14.230;2023-03-01T00:30:49;9.30;;;5.70;;
71867;SDS011;59738;48.324;14.230;2023-03-01T00:33:17;9.50;;;5.28;;
71867;SDS011;59738;48.324;14.230;2023-03-01T00:35:46;12.38;;;6.43;;
71867;SDS011;59738;48.324;14.230;2023-03-01T00:38:14;12.75;;;7.90;;
71867;SDS011;59738;48.324;14.230;2023-03-01T00:40:41;9.77;;;5.85;;
71867;SDS011;59738;48.324;14.230;2023-03-01T00:43:09;6.43;;;4.15;;
71867;SDS011;59738;48.324;14.230;2023-03-01T00:45:37;10.50;;;6.22;;
71867;SDS011;59738;48.324;14.230;2023-03-01T00:48:05;11.40;;;6.35;;
71867;SDS011;59738;48.324;14.230;2023-03-01T00:50:33;9.00;;;5.03;;
71867;SDS011;59738;48.324;14.230;2023-03-01T00:53:03;8.70;;;5.28;;
71867;SDS011;59738;48.324;14.230;2023-03-01T00:55:31;11.30;;;5.78;;
71867;SDS011;59738;48.324;14.230;2023-03-01T00:57:59;10.63;;;5.57;;
71867;SDS011;59738;48.324;14.230;2023-03-01T01:00:26;13.35;;;4.78;;
71867;SDS011;59738;48.324;14.230;2023-03-01T01:02:54;12.30;;;6.68;;
71867;SDS011;59738;48.324;14.230;2023-03-01T01:05:21;9.25;;;5.57;;
71867;SDS011;59738;48.324;14.230;2023-03-01T01:07:49;9.30;;;5.90;;
71867;SDS011;59738;48.324;14.230;2023-03-01T01:10:18;11.90;;;7.43;;
71867;SDS011;59738;48.324;14.230;2023-03-01T01:12:46;8.18;;;4.63;;
71867;SDS011;59738;48.324;14.230;2023-03-01T01:15:13;9.40;;;5.57;;
71867;SDS011;59738;48.324;14.230;2023-03-01T01:17:42;10.70;;;5.78;;
71867;SDS011;59738;48.324;14.230;2023-03-01T01:20:10;7.90;;;4.00;;
71867;SDS011;59738;48.324;14.230;2023-03-01T01:22:38;8.38;;;4.13;;
71867;SDS011;59738;48.324;14.230;2023-03-01T01:25:06;8.48;;;6.03;;
71867;SDS011;59738;48.324;14.230;2023-03-01T01:27:36;11.23;;;6.72;;
71867;SDS011;59738;48.324;14.230;2023-03-01T01:30:04;11.35;;;6.85;;
71867;SDS011;59738;48.324;14.230;2023-03-01T01:32:33;9.10;;;5.60;;
71867;SDS011;59738;48.324;14.230;2023-03-01T01:35:00;10.90;;;5.05;;
71867;SDS011;59738;48.324;14.230;2023-03-01T01:37:28;11.13;;;6.47;;
71867;SDS011;59738;48.324;14.230;2023-03-01T01:39:58;9.10;;;5.68;;
71867;SDS011;59738;48.324;14.230;2023-03-01T01:42:26;16.30;;;8.13;;
71867;SDS011;59738;48.324;14.230;2023-03-01T01:47:53;11.63;;;7.28;;
71867;SDS011;59738;48.324;14.230;2023-03-01T01:50:23;11.75;;;6.45;;
71867;SDS011;59738;48.324;14.230;2023-03-01T01:52:51;8.55;;;4.93;;
71867;SDS011;59738;48.324;14.230;2023-03-01T01:55:20;11.82;;;5.47;;
71867;SDS011;59738;48.324;14.230;2023-03-01T01:57:50;11.77;;;5.93;;
71867;SDS011;59738;48.324;14.230;2023-03-01T02:00:20;14.57;;;7.72;;
71867;SDS011;59738;48.324;14.230;2023-03-01T02:02:51;11.93;;;7.07;;
71867;SDS011;59738;48.324;14.230;2023-03-01T02:05:24;7.57;;;5.40;;
71867;SDS011;59738;48.324;14.230;2023-03-01T02:07:54;7.10;;;4.20;;
71867;SDS011;59738;48.324;14.230;2023-03-01T02:10:23;12.48;;;6.72;;
71867;SDS011;59738;48.324;14.230;2023-03-01T02:12:51;10.75;;;5.00;;
71867;SDS011;59738;48.324;14.230;2023-03-01T02:15:19;13.70;;;6.97;;
71867;SDS011;59738;48.324;14.230;2023-03-01T02:17:47;11.93;;;7.03;;
71867;SDS011;59738;48.324;14.230;2023-03-01T02:20:16;12.25;;;6.72;;
71867;SDS011;59738;48.324;14.230;2023-03-01T02:22:48;11.23;;;5.60;;
71867;SDS011;59738;48.324;14.230;2023-03-01T02:25:26;10.05;;;5.82;;
71867;SDS011;59738;48.324;14.230;2023-03-01T02:27:58;14.38;;;7.68;;
71867;SDS011;59738;48.324;14.230;2023-03-01T02:30:30;12.20;;;6.32;;
71867;SDS011;59738;48.324;14.230;2023-03-01T02:32:58;20.63;;;10.23;;
71867;SDS011;59738;48.324;14.230;2023-03-01T02:35:28;9.45;;;6.18;;
71867;SDS011;59738;48.324;14.230;2023-03-01T02:37:58;8.80;;;5.20;;
71867;SDS011;59738;48.324;14.230;2023-03-01T02:40:27;11.95;;;7.22;;
71867;SDS011;59738;48.324;14.230;2023-03-01T02:42:56;14.20;;;7.53;;
71867;SDS011;59738;48.324;14.230;2023-03-01T02:45:26;7.88;;;4.45;;
71867;SDS011;59738;48.324;14.230;2023-03-01T02:47:55;15.38;;;6.28;;
71867;SDS011;59738;48.324;14.230;2023-03-01T02:50:31;11.60;;;6.25;;
71867;SDS011;59738;48.324;14.230;2023-03-01T02:53:11;11.48;;;6.18;;
71867;SDS011;59738;48.324;14.230;2023-03-01T02:55:40;8.60;;;4.55;;
71867;SDS011;59738;48.324;14.230;2023-03-01T02:58:08;9.25;;;6.13;;
71867;SDS011;59738;48.324;14.230;2023-03-01T03:00:36;14.90;;;7.85;;
71867;SDS011;59738;48.324;14.230;2023-03-01T03:03:07;13.13;;;6.47;;
71867;SDS011;59738;48.324;14.230;2023-03-01T03:05:35;11.30;;;5.70;;
71867;SDS011;59738;48.324;14.230;2023-03-01T03:08:02;9.82;;;5.47;;
71867;SDS011;59738;48.324;14.230;2023-03-01T03:10:35;13.93;;;4.53;;
71867;SDS011;59738;48.324;14.230;2023-03-01T03:13:06;13.23;;;5.70;;
71867;SDS011;59738;48.324;14.230;2023-03-01T03:15:34;8.85;;;4.93;;
71867;SDS011;59738;48.324;14.230;2023-03-01T03:18:03;12.25;;;6.78;;
71867;SDS011;59738;48.324;14.230;2023-03-01T03:20:33;17.30;;;6.45;;
71867;SDS011;59738;48.324;14.230;2023-03-01T03:23:01;14.73;;;5.67;;
71867;SDS011;59738;48.324;14.230;2023-03-01T03:25:28;11.63;;;6.80;;
71867;SDS011;59738;48.324;14.230;2023-03-01T03:27:56;10.65;;;6.10;;
71867;SDS011;59738;48.324;14.230;2023-03-01T03:30:26;8.02;;;5.13;;
71867;SDS011;59738;48.324;14.230;2023-03-01T03:32:56;12.15;;;7.05;;
71867;SDS011;59738;48.324;14.230;2023-03-01T03:35:26;15.17;;;7.00;;
71867;SDS011;59738;48.324;14.230;2023-03-01T03:37:57;10.80;;;4.63;;
71867;SDS011;59738;48.324;14.230;2023-03-01T03:40:30;10.23;;;5.65;;
71867;SDS011;59738;48.324;14.230;2023-03-01T03:42:58;12.57;;;6.35;;
71867;SDS011;59738;48.324;14.230;2023-03-01T03:45:26;12.20;;;4.82;;
71867;SDS011;59738;48.324;14.230;2023-03-01T03:47:54;11.38;;;6.32;;
71867;SDS011;59738;48.324;14.230;2023-03-01T03:50:21;10.90;;;6.57;;
71867;SDS011;59738;48.324;14.230;2023-03-01T03:52:49;10.35;;;5.88;;
71867;SDS011;59738;48.324;14.230;2023-03-01T03:55:18;10.15;;;5.85;;
71867;SDS011;59738;48.324;14.230;2023-03-01T03:57:46;15.18;;;6.40;;
71867;SDS011;59738;48.324;14.230;2023-03-01T04:00:17;12.70;;;6.20;;
71867;SDS011;59738;48.324;14.230;2023-03-01T04:02:46;15.55;;;7.65;;
71867;SDS011;59738;48.324;14.230;2023-03-01T04:05:15;13.27;;;6.70;;
71867;SDS011;59738;48.324;14.230;2023-03-01T04:07:44;8.45;;;4.32;;
71867;SDS011;59738;48.324;14.230;2023-03-01T04:10:13;14.45;;;6.40;;
71867;SDS011;59738;48.324;14.230;2023-03-01T04:12:44;7.87;;;4.60;;
71867;SDS011;59738;48.324;14.230;2023-03-01T04:15:12;11.20;;;5.80;;
71867;SDS011;59738;48.324;14.230;2023-03-01T04:17:40;9.75;;;5.90;;
71867;SDS011;59738;48.324;14.230;2023-03-01T04:20:08;6.20;;;4.38;;
71867;SDS011;59738;48.324;14.230;2023-03-01T04:22:37;11.73;;;6.05;;
71867;SDS011;59738;48.324;14.230;2023-03-01T04:25:05;10.83;;;5.93;;
71867;SDS011;59738;48.324;14.230;2023-03-01T04:27:34;9.82;;;5.25;;
71867;SDS011;59738;48.324;14.230;2023-03-01T04:30:04;12.38;;;5.82;;
71867;SDS011;59738;48.324;14.230;2023-03-01T04:32:32;9.63;;;4.93;;
71867;SDS011;59738;48.324;14.230;2023-03-01T04:35:02;10.90;;;5.70;;
71867;SDS011;59738;48.324;14.230;2023-03-01T04:37:30;12.27;;;5.97;;
71867;SDS011;59738;48.324;14.230;2023-03-01T04:39:58;13.00;;;6.25;;
71867;SDS011;59738;48.324;14.230;2023-03-01T04:42:25;13.77;;;7.40;;
71867;SDS011;59738;48.324;14.230;2023-03-01T04:44:53;9.60;;;5.97;;
71867;SDS011;59738;48.324;14.230;2023-03-01T04:47:22;13.23;;;6.55;;
71867;SDS011;59738;48.324;14.230;2023-03-01T04:49:49;12.20;;;6.53;;
71867;SDS011;59738;48.324;14.230;2023-03-01T04:52:17;13.95;;;7.70;;
71867;SDS011;59738;48.324;14.230;2023-03-01T04:54:44;20.13;;;8.00;;
71867;SDS011;59738;48.324;14.230;2023-03-01T04:57:12;14.88;;;7.95;;
71867;SDS011;59738;48.324;14.230;2023-03-01T04:59:39;15.75;;;7.00;;
71867;SDS011;59738;48.324;14.230;2023-03-01T05:02:07;17.10;;;8.63;;
71867;SDS011;59738;48.324;14.230;2023-03-01T05:04:36;17.42;;;8.48;;
71867;SDS011;59738;48.324;14.230;2023-03-01T05:07:03;11.45;;;7.10;;
71867;SDS011;59738;48.324;14.230;2023-03-01T05:09:30;18.58;;;8.85;;
71867;SDS011;59738;48.324;14.230;2023-03-01T05:11:58;13.98;;;8.15;;
71867;SDS011;59738;48.324;14.230;2023-03-01T05:14:25;10.33;;;6.40;;
71867;SDS011;59738;48.324;14.230;2023-03-01T05:16:54;12.95;;;6.68;;
71867;SDS011;59738;48.324;14.230;2023-03-01T05:19:29;14.57;;;8.05;;
71867;SDS011;59738;48.324;14.230;2023-03-01T05:21:58;10.25;;;5.85;;
71867;SDS011;59738;48.324;14.230;2023-03-01T05:24:31;18.88;;;8.02;;
71867;SDS011;59738;48.324;14.230;2023-03-01T05:27:00;11.33;;;6.43;;
71867;SDS011;59738;48.324;14.230;2023-03-01T05:29:28;17.70;;;8.90;;
71867;SDS011;59738;48.324;14.230;2023-03-01T05:31:56;11.57;;;6.68;;
71867;SDS011;59738;48.324;14.230;2023-03-01T05:34:27;17.85;;;6.07;;
71867;SDS011;59738;48.324;14.230;2023-03-01T05:36:56;21.90;;;9.07;;
71867;SDS011;59738;48.324;14.230;2023-03-01T05:39:26;11.00;;;6.07;;
71867;SDS011;59738;48.324;14.230;2023-03-01T05:41:55;20.98;;;9.13;;
71867;SDS011;59738;48.324;14.230;2023-03-01T05:44:24;16.88;;;8.88;;
71867;SDS011;59738;48.324;14.230;2023-03-01T05:46:52;14.68;;;7.80;;
71867;SDS011;59738;48.324;14.230;2023-03-01T05:49:20;17.70;;;8.75;;
71867;SDS011;59738;48.324;14.230;2023-03-01T05:51:50;15.00;;;7.30;;
71867;SDS011;59738;48.324;14.230;2023-03-01T05:54:18;15.55;;;8.75;;
71867;SDS011;59738;48.324;14.230;2023-03-01T05:56:47;8.68;;;5.63;;
71867;SDS011;59738;48.324;14.230;2023-03-01T05:59:18;20.75;;;8.18;;
71867;SDS011;59738;48.324;14.230;2023-03-01T06:01:45;10.55;;;6.72;;
71867;SDS011;59738;48.324;14.230;2023-03-01T06:04:13;22.57;;;8.50;;
71867;SDS011;59738;48.324;14.230;2023-03-01T06:06:40;15.40;;;8.43;;
71867;SDS011;59738;48.324;14.230;2023-03-01T06:09:07;14.25;;;7.45;;
71867;SDS011;59738;48.324;14.230;2023-03-01T06:11:36;12.60;;;6.28;;
71867;SDS011;59738;48.324;14.230;2023-03-01T06:14:05;16.95;;;8.70;;
71867;SDS011;59738;48.324;14.230;2023-03-01T06:16:33;12.20;;;6.63;;
71867;SDS011;59738;48.324;14.230;2023-03-01T06:19:01;13.05;;;5.70;;
71867;SDS011;59738;48.324;14.230;2023-03-01T06:21:29;17.20;;;7.65;;
71867;SDS011;59738;48.324;14.230;2023-03-01T06:23:57;13.23;;;7.03;;
71867;SDS011;59738;48.324;14.230;2023-03-01T06:26:24;14.95;;;8.60;;
71867;SDS011;59738;48.324;14.230;2023-03-01T06:28:52;20.15;;;9.55;;
71867;SDS011;59738;48.324;14.230;2023-03-01T06:31:20;20.98;;;8.63;;
71867;SDS011;59738;48.324;14.230;2023-03-01T06:33:48;16.73;;;8.38;;
71867;SDS011;59738;48.324;14.230;2023-03-01T06:36:15;13.13;;;7.18;;
71867;SDS011;59738;48.324;14.230;2023-03-01T06:38:44;17.40;;;9.63;;
71867;SDS011;59738;48.324;14.230;2023-03-01T06:41:12;17.13;;;8.40;;
71867;SDS011;59738;48.324;14.230;2023-03-01T06:43:39;12.60;;;7.07;;
71867;SDS011;59738;48.324;14.230;2023-03-01T06:46:06;21.77;;;8.70;;
71867;SDS011;59738;48.324;14.230;2023-03-01T06:48:35;19.10;;;9.40;;
71867;SDS011;59738;48.324;14.230;2023-03-01T06:51:03;16.42;;;9.13;;
71867;SDS011;59738;48.324;14.230;2023-03-01T06:53:31;17.87;;;8.67;;
71867;SDS011;59738;48.324;14.230;2023-03-01T06:55:58;17.15;;;8.85;;
71867;SDS011;59738;48.324;14.230;2023-03-01T06:58:26;16.70;;;9.35;;
71867;SDS011;59738;48.324;14.230;2023-03-01T07:00:54;18.83;;;7.72;;
71867;SDS011;59738;48.324;14.230;2023-03-01T07:03:21;11.73;;;6.75;;
71867;SDS011;59738;48.324;14.230;2023-03-01T07:05:51;16.50;;;8.85;;
71867;SDS011;59738;48.324;14.230;2023-03-01T07:08:19;13.38;;;7.40;;
71867;SDS011;59738;48.324;14.230;2023-03-01T07:10:46;16.10;;;8.07;;
71867;SDS011;59738;48.324;14.230;2023-03-01T07:13:14;12.88;;;6.95;;
71867;SDS011;59738;48.324;14.230;2023-03-01T07:15:42;9.98;;;6.15;;
71867;SDS011;59738;48.324;14.230;2023-03-01T07:18:09;14.00;;;7.32;;
71867;SDS011;59738;48.324;14.230;2023-03-01T07:20:37;9.90;;;6.00;;
71867;SDS011;59738;48.324;14.230;2023-03-01T07:23:06;13.73;;;7.78;;
71867;SDS011;59738;48.324;14.230;2023-03-01T07:25:33;13.73;;;8.02;;
71867;SDS011;59738;48.324;14.230;2023-03-01T07:28:01;12.80;;;6.32;;
71867;SDS011;59738;48.324;14.230;2023-03-01T07:30:28;17.30;;;8.13;;
71867;SDS011;59738;48.324;14.230;2023-03-01T07:32:56;14.63;;;6.80;;
71867;SDS011;59738;48.324;14.230;2023-03-01T07:35:24;14.50;;;7.38;;
71867;SDS011;59738;48.324;14.230;2023-03-01T07:37:52;17.77;;;6.75;;
71867;SDS011;59738;48.324;14.230;2023-03-01T07:40:21;17.15;;;9.70;;
71867;SDS011;59738;48.324;14.230;2023-03-01T07:42:48;12.77;;;6.45;;
71867;SDS011;59738;48.324;14.230;2023-03-01T07:45:16;16.35;;;8.80;;
71867;SDS011;59738;48.324;14.230;2023-03-01T07:47:43;15.57;;;8.23;;
71867;SDS011;59738;48.324;14.230;2023-03-01T07:50:11;17.42;;;9.02;;
71867;SDS011;59738;48.324;14.230;2023-03-01T07:52:41;12.93;;;7.75;;
71867;SDS011;59738;48.324;14.230;2023-03-01T07:55:09;9.85;;;6.20;;
71867;SDS011;59738;48.324;14.230;2023-03-01T07:57:38;16.80;;;8.10;;
71867;SDS011;59738;48.324;14.230;2023-03-01T08:00:10;12.70;;;7.00;;
71867;SDS011;59738;48.324;14.230;2023-03-01T08:02:38;11.98;;;7.50;;
71867;SDS011;59738;48.324;14.230;2023-03-01T08:05:07;10.38;;;6.80;;
71867;SDS011;59738;48.324;14.230;2023-03-01T08:07:35;14.93;;;8.15;;
71867;SDS011;59738;48.324;14.230;2023-03-01T08:10:03;16.48;;;7.88;;
71867;SDS011;59738;48.324;14.230;2023-03-01T08:12:32;8.35;;;5.45;;
71867;SDS011;59738;48.324;14.230;2023-03-01T08:15:01;13.05;;;7.15;;
71867;SDS011;59738;48.324;14.230;2023-03-01T08:17:29;16.15;;;6.38;;
71867;SDS011;59738;48.324;14.230;2023-03-01T08:19:57;13.15;;;7.15;;
71867;SDS011;59738;48.324;14.230;2023-03-01T08:22:24;16.33;;;8.98;;
71867;SDS011;59738;48.324;14.230;2023-03-01T08:24:51;11.55;;;5.70;;
71867;SDS011;59738;48.324;14.230;2023-03-01T08:27:21;13.13;;;7.05;;
71867;SDS011;59738;48.324;14.230;2023-03-01T08:29:49;12.30;;;6.22;;
71867;SDS011;59738;48.324;14.230;2023-03-01T08:32:17;18.48;;;8.90;;
71867;SDS011;59738;48.324;14.230;2023-03-01T08:34:46;13.02;;;6.55;;
71867;SDS011;59738;48.324;14.230;2023-03-01T08:37:13;11.90;;;6.90;;
71867;SDS011;59738;48.324;14.230;2023-03-01T08:39:40;16.55;;;7.40;;
71867;SDS011;59738;48.324;14.230;2023-03-01T08:42:08;11.43;;;6.03;;
71867;SDS011;59738;48.324;14.230;2023-03-01T08:44:35;16.20;;;8.48;;
71867;SDS011;59738;48.324;14.230;2023-03-01T08:47:03;12.20;;;5.93;;
71867;SDS011;59738;48.324;14.230;2023-03-01T08:49:32;11.65;;;6.35;;
71867;SDS011;59738;48.324;14.230;2023-03-01T08:52:01;14.45;;;6.60;;
71867;SDS011;59738;48.324;14.230;2023-03-01T08:54:29;8.98;;;5.00;;
71867;SDS011;59738;48.324;14.230;2023-03-01T08:57:00;5.93;;;4.55;;
71867;SDS011;59738;48.324;14.230;2023-03-01T08:59:28;10.77;;;5.70;;
71867;SDS011;59738;48.324;14.230;2023-03-01T09:01:56;14.98;;;7.53;;
71867;SDS011;59738;48.324;14.230;2023-03-01T09:04:23;10.65;;;5.95;;
71867;SDS011;59738;48.324;14.230;2023-03-01T09:06:53;11.82;;;6.20;;
71867;SDS011;59738;48.324;14.230;2023-03-01T09:09:21;13.45;;;7.20;;
71867;SDS011;59738;48.324;14.230;2023-03-01T09:11:48;12.83;;;6.97;;
71867;SDS011;59738;48.324;14.230;2023-03-01T09:14:16;15.65;;;6.82;;
71867;SDS011;59738;48.324;14.230;2023-03-01T09:16:44;11.40;;;6.07;;
71867;SDS011;59738;48.324;14.230;2023-03-01T09:19:11;9.85;;;5.22;;
71867;SDS011;59738;48.324;14.230;2023-03-01T09:21:39;9.45;;;5.82;;
71867;SDS011;59738;48.324;14.230;2023-03-01T09:24:11;10.30;;;5.83;;
71867;SDS011;59738;48.324;14.230;2023-03-01T09:26:40;12.13;;;6.15;;
71867;SDS011;59738;48.324;14.230;2023-03-01T09:29:08;10.82;;;6.10;;
71867;SDS011;59738;48.324;14.230;2023-03-01T09:31:36;10.65;;;6.07;;
71867;SDS011;59738;48.324;14.230;2023-03-01T09:34:03;11.50;;;5.93;;
71867;SDS011;59738;48.324;14.230;2023-03-01T09:36:31;9.50;;;4.23;;
71867;SDS011;59738;48.324;14.230;2023-03-01T09:39:01;9.45;;;4.43;;
71867;SDS011;59738;48.324;14.230;2023-03-01T09:41:36;8.93;;;5.50;;
71867;SDS011;59738;48.324;14.230;2023-03-01T09:44:11;9.82;;;5.53;;
71867;SDS011;59738;48.324;14.230;2023-03-01T09:46:45;10.48;;;6.60;;
71867;SDS011;59738;48.324;14.230;2023-03-01T09:49:14;14.13;;;4.83;;
71867;SDS011;59738;48.324;14.230;2023-03-01T09:51:46;12.48;;;5.13;;
71867;SDS011;59738;48.324;14.230;2023-03-01T09:54:19;12.02;;;5.80;;
71867;SDS011;59738;48.324;14.230;2023-03-01T09:56:51;11.13;;;4.78;;
71867;SDS011;59738;48.324;14.230;2023-03-01T09:59:25;6.30;;;4.53;;
71867;SDS011;59738;48.324;14.230;2023-03-01T10:01:58;13.27;;;5.80;;
71867;SDS011;59738;48.324;14.230;2023-03-01T10:04:27;10.27;;;5.32;;
71867;SDS011;59738;48.324;14.230;2023-03-01T10:07:03;6.60;;;4.25;;
71867;SDS011;59738;48.324;14.230;2023-03-01T10:09:34;7.28;;;4.63;;
71867;SDS011;59738;48.324;14.230;2023-03-01T10:12:07;9.43;;;5.07;;
71867;SDS011;59738;48.324;14.230;2023-03-01T10:14:38;15.57;;;6.73;;
71867;SDS011;59738;48.324;14.230;2023-03-01T10:17:08;13.55;;;7.07;;
71867;SDS011;59738;48.324;14.230;2023-03-01T10:19:40;13.95;;;6.18;;
71867;SDS011;59738;48.324;14.230;2023-03-01T10:22:11;8.07;;;4.60;;
71867;SDS011;59738;48.324;14.230;2023-03-01T10:24:41;12.30;;;5.68;;
71867;SDS011;59738;48.324;14.230;2023-03-01T10:27:11;10.70;;;6.33;;
71867;SDS011;59738;48.324;14.230;2023-03-01T10:29:43;12.57;;;5.53;;
71867;SDS011;59738;48.324;14.230;2023-03-01T10:32:14;9.77;;;5.85;;
71867;SDS011;59738;48.324;14.230;2023-03-01T10:34:42;8.80;;;4.28;;
71867;SDS011;59738;48.324;14.230;2023-03-01T10:37:10;9.05;;;5.15;;
71867;SDS011;59738;48.324;14.230;2023-03-01T10:39:54;12.90;;;6.60;;
71867;SDS011;59738;48.324;14.230;2023-03-01T10:42:25;8.25;;;4.93;;
71867;SDS011;59738;48.324;14.230;2023-03-01T10:44:55;10.80;;;4.43;;
71867;SDS011;59738;48.324;14.230;2023-03-01T10:47:24;7.95;;;4.75;;
71867;SDS011;59738;48.324;14.230;2023-03-01T10:49:59;10.15;;;5.15;;
71867;SDS011;59738;48.324;14.230;2023-03-01T10:52:55;12.93;;;5.17;;
71867;SDS011;59738;48.324;14.230;2023-03-01T10:55:26;8.18;;;4.45;;
71867;SDS011;59738;48.324;14.230;2023-03-01T10:58:07;6.15;;;3.58;;
71867;SDS011;59738;48.324;14.230;2023-03-01T11:00:45;8.32;;;3.83;;
71867;SDS011;59738;48.324;14.230;2023-03-01T11:03:17;7.22;;;3.83;;
71867;SDS011;59738;48.324;14.230;2023-03-01T11:05:54;10.33;;;4.60;;
71867;SDS011;59738;48.324;14.230;2023-03-01T11:08:35;8.15;;;4.28;;
71867;SDS011;59738;48.324;14.230;2023-03-01T11:11:15;8.57;;;4.25;;
71867;SDS011;59738;48.324;14.230;2023-03-01T11:13:54;7.75;;;3.85;;
71867;SDS011;59738;48.324;14.230;2023-03-01T11:19:19;7.83;;;3.90;;
71867;SDS011;59738;48.324;14.230;2023-03-01T11:24:37;7.05;;;4.13;;
71867;SDS011;59738;48.324;14.230;2023-03-01T11:27:08;6.78;;;3.70;;
71867;SDS011;59738;48.324;14.230;2023-03-01T11:29:45;9.73;;;4.38;;
71867;SDS011;59738;48.324;14.230;2023-03-01T11:32:16;6.53;;;4.03;;
71867;SDS011;59738;48.324;14.230;2023-03-01T11:34:47;7.28;;;4.55;;
71867;SDS011;59738;48.324;14.230;2023-03-01T11:37:28;8.63;;;4.60;;
71867;SDS011;59738;48.324;14.230;2023-03-01T11:40:03;12.55;;;4.85;;
71867;SDS011;59738;48.324;14.230;2023-03-01T11:42:42;6.72;;;4.25;;
71867;SDS011;59738;48.324;14.230;2023-03-01T11:45:15;8.43;;;3.93;;
71867;SDS011;59738;48.324;14.230;2023-03-01T11:47:46;11.45;;;4.22;;
71867;SDS011;59738;48.324;14.230;2023-03-01T11:50:26;8.05;;;4.25;;
71867;SDS011;59738;48.324;14.230;2023-03-01T11:53:02;10.05;;;4.90;;
71867;SDS011;59738;48.324;14.230;2023-03-01T11:55:46;8.38;;;4.57;;
71867;SDS011;59738;48.324;14.230;2023-03-01T11:58:26;8.73;;;4.13;;
71867;SDS011;59738;48.324;14.230;2023-03-01T12:01:08;12.77;;;4.53;;
71867;SDS011;59738;48.324;14.230;2023-03-01T12:03:46;9.50;;;4.15;;
71867;SDS011;59738;48.324;14.230;2023-03-01T12:09:36;4.93;;;3.40;;
71867;SDS011;59738;48.324;14.230;2023-03-01T12:15:19;7.40;;;4.53;;
71867;SDS011;59738;48.324;14.230;2023-03-01T12:18:01;8.23;;;3.80;;
71867;SDS011;59738;48.324;14.230;2023-03-01T12:20:41;6.50;;;4.13;;
71867;SDS011;59738;48.324;14.230;2023-03-01T12:26:24;10.40;;;4.80;;
71867;SDS011;59738;48.324;14.230;2023-03-01T12:29:02;10.45;;;4.75;;
71867;SDS011;59738;48.324;14.230;2023-03-01T12:31:39;17.45;;;5.22;;
71867;SDS011;59738;48.324;14.230;2023-03-01T12:34:37;6.18;;;4.10;;
71867;SDS011;59738;48.324;14.230;2023-03-01T12:37:19;6.22;;;4.07;;
71867;SDS011;59738;48.324;14.230;2023-03-01T12:39:53;9.43;;;4.20;;
71867;SDS011;59738;48.324;14.230;2023-03-01T12:42:31;9.23;;;4.55;;
71867;SDS011;59738;48.324;14.230;2023-03-01T12:45:04;9.00;;;4.22;;
71867;SDS011;59738;48.324;14.230;2023-03-01T12:47:51;9.73;;;4.70;;
71867;SDS011;59738;48.324;14.230;2023-03-01T12:50:28;9.57;;;5.47;;
71867;SDS011;59738;48.324;14.230;2023-03-01T12:53:03;7.47;;;4.47;;
71867;SDS011;59738;48.324;14.230;2023-03-01T12:55:31;12.82;;;5.88;;
71867;SDS011;59738;48.324;14.230;2023-03-01T12:58:02;10.32;;;4.93;;
71867;SDS011;59738;48.324;14.230;2023-03-01T13:00:36;7.55;;;4.15;;
71867;SDS011;59738;48.324;14.230;2023-03-01T13:03:09;11.88;;;5.20;;
71867;SDS011;59738;48.324;14.230;2023-03-01T13:05:45;12.57;;;6.10;;
71867;SDS011;59738;48.324;14.230;2023-03-01T13:08:22;7.82;;;4.32;;
71867;SDS011;59738;48.324;14.230;2023-03-01T13:10:55;8.98;;;4.55;;
71867;SDS011;59738;48.324;14.230;2023-03-01T13:13:26;8.63;;;4.50;;
71867;SDS011;59738;48.324;14.230;2023-03-01T13:15:55;9.38;;;5.35;;
71867;SDS011;59738;48.324;14.230;2023-03-01T13:18:32;17.70;;;5.63;;
71867;SDS011;59738;48.324;14.230;2023-03-01T13:21:02;9.80;;;5.22;;
71867;SDS011;59738;48.324;14.230;2023-03-01T13:23:32;11.90;;;6.22;;
71867;SDS011;59738;48.324;14.230;2023-03-01T13:26:05;18.17;;;5.65;;
71867;SDS011;59738;48.324;14.230;2023-03-01T13:28:46;10.45;;;5.82;;
71867;SDS011;59738;48.324;14.230;2023-03-01T13:37:26;7.93;;;4.63;;
71867;SDS011;59738;48.324;14.230;2023-03-01T13:39:57;12.70;;;5.45;;
71867;SDS011;59738;48.324;14.230;2023-03-01T13:42:38;11.70;;;5.15;;
71867;SDS011;59738;48.324;14.230;2023-03-01T13:45:20;8.77;;;5.07;;
71867;SDS011;59738;48.324;14.230;2023-03-01T13:47:54;9.25;;;4.43;;
71867;SDS011;59738;48.324;14.230;2023-03-01T13:50:25;7.68;;;4.47;;
71867;SDS011;59738;48.324;14.230;2023-03-01T13:52:57;11.20;;;4.38;;
71867;SDS011;59738;48.324;14.230;2023-03-01T13:55:35;14.93;;;4.88;;
71867;SDS011;59738;48.324;14.230;2023-03-01T13:58:05;10.00;;;4.43;;
71867;SDS011;59738;48.324;14.230;2023-03-01T14:00:42;10.82;;;4.18;;
71867;SDS011;59738;48.324;14.230;2023-03-01T14:03:11;10.00;;;5.18;;
71867;SDS011;59738;48.324;14.230;2023-03-01T14:05:40;11.85;;;4.30;;
71867;SDS011;59738;48.324;14.230;2023-03-01T14:08:24;9.15;;;4.13;;
71867;SDS011;59738;48.324;14.230;2023-03-01T14:11:05;7.87;;;3.43;;
71867;SDS011;59738;48.324;14.230;2023-03-01T14:13:50;12.90;;;4.53;;
71867;SDS011;59738;48.324;14.230;2023-03-01T14:16:29;8.40;;;4.30;;
71867;SDS011;59738;48.324;14.230;2023-03-01T14:19:05;7.53;;;3.88;;
71867;SDS011;59738;48.324;14.230;2023-03-01T14:21:39;8.48;;;3.85;;
71867;SDS011;59738;48.324;14.230;2023-03-01T14:24:15;6.27;;;3.60;;
71867;SDS011;59738;48.324;14.230;2023-03-01T14:26:45;9.10;;;4.20;;
71867;SDS011;59738;48.324;14.230;2023-03-01T14:29:26;7.57;;;3.67;;
71867;SDS011;59738;48.324;14.230;2023-03-01T14:31:54;10.60;;;4.55;;
71867;SDS011;59738;48.324;14.230;2023-03-01T14:34:23;14.80;;;4.28;;
71867;SDS011;59738;48.324;14.230;2023-03-01T14:36:51;7.80;;;3.57;;
71867;SDS011;59738;48.324;14.230;2023-03-01T14:39:23;5.32;;;3.63;;
71867;SDS011;59738;48.324;14.230;2023-03-01T14:41:52;6.78;;;3.53;;
71867;SDS011;59738;48.324;14.230;2023-03-01T14:44:21;8.85;;;4.72;;
71867;SDS011;59738;48.324;14.230;2023-03-01T14:46:51;8.32;;;4.40;;
71867;SDS011;59738;48.324;14.230;2023-03-01T14:49:21;9.40;;;4.10;;
71867;SDS011;59738;48.324;14.230;2023-03-01T14:51:52;11.90;;;4.95;;
71867;SDS011;59738;48.324;14.230;2023-03-01T14:54:23;9.23;;;4.38;;
71867;SDS011;59738;48.324;14.230;2023-03-01T14:56:53;10.02;;;4.93;;
71867;SDS011;59738;48.324;14.230;2023-03-01T14:59:22;5.25;;;3.70;;
71867;SDS011;59738;48.324;14.230;2023-03-01T15:01:50;10.97;;;4.40;;
71867;SDS011;59738;48.324;14.230;2023-03-01T15:04:18;9.82;;;4.00;;
71867;SDS011;59738;48.324;14.230;2023-03-01T15:06:46;6.60;;;3.80;;
71867;SDS011;59738;48.324;14.230;2023-03-01T15:09:14;12.98;;;4.22;;